createdAt,value
2022-10-19T00:00:52.084Z,96965
2022-10-19T00:04:52.084Z,96961
2022-10-19T00:06:52.103Z,96958
2022-10-19T00:07:52.135Z,96958
2022-10-19T00:08:52.084Z,96957
2022-10-19T00:09:52.099Z,96958
2022-10-19T00:10:55.752Z,96956
2022-10-19T00:11:52.115Z,96954
2022-10-19T00:12:52.117Z,96954
2022-10-19T00:13:52.081Z,96954
2022-10-19T00:14:52.079Z,96953
2022-10-19T00:15:52.084Z,96957
2022-10-19T00:16:52.088Z,96956
2022-10-19T00:18:52.150Z,96952
2022-10-19T00:21:52.140Z,96951
2022-10-19T00:22:52.136Z,96951
2022-10-19T00:23:52.151Z,96945
2022-10-19T00:24:52.166Z,96948
2022-10-19T00:26:52.147Z,96949
2022-10-19T00:28:52.193Z,96948
2022-10-19T00:29:52.125Z,96948
2022-10-19T00:30:52.159Z,96951
2022-10-19T00:31:52.137Z,96940
2022-10-19T00:32:52.134Z,96940
2022-10-19T00:33:52.135Z,96944
2022-10-19T00:34:52.160Z,96946
2022-10-19T00:35:52.145Z,96948
2022-10-19T00:37:52.178Z,96948
2022-10-19T00:38:52.162Z,96948
2022-10-19T00:39:52.208Z,96945
2022-10-19T00:40:52.157Z,96945
2022-10-19T00:43:52.202Z,96940
2022-10-19T00:44:52.184Z,96938
2022-10-19T00:45:52.174Z,96936
2022-10-19T00:46:52.175Z,96938
2022-10-19T00:47:55.980Z,96937
2022-10-19T00:49:52.210Z,96937
2022-10-19T00:51:52.196Z,96933
2022-10-19T00:52:52.214Z,96930
2022-10-19T00:54:52.189Z,96934
2022-10-19T00:57:52.271Z,96929
2022-10-19T00:58:52.222Z,96928
2022-10-19T00:59:52.204Z,96926
2022-10-19T01:00:52.286Z,96930
2022-10-19T01:01:52.224Z,96928
2022-10-19T01:02:52.221Z,96928
2022-10-19T01:03:52.233Z,96928
2022-10-19T01:05:52.229Z,96928
2022-10-19T01:06:52.220Z,96931
2022-10-19T01:07:52.238Z,96932
2022-10-19T01:08:52.283Z,96932
2022-10-19T01:09:52.259Z,96931
2022-10-19T01:10:52.255Z,96929
2022-10-19T01:11:52.241Z,96929
2022-10-19T01:13:52.244Z,96926
2022-10-19T01:14:52.270Z,96927
2022-10-19T01:16:52.262Z,96925
2022-10-19T01:17:52.301Z,96925
2022-10-19T01:18:52.279Z,96921
2022-10-19T01:19:52.265Z,96921
2022-10-19T01:20:52.271Z,96921
2022-10-19T01:21:52.247Z,96917
2022-10-19T01:22:52.254Z,96917
2022-10-19T01:23:52.251Z,96913
2022-10-19T01:24:56.194Z,96914
2022-10-19T01:25:52.313Z,96915
2022-10-19T01:27:52.280Z,96914
2022-10-19T01:28:52.323Z,96914
2022-10-19T01:29:52.296Z,96911
2022-10-19T01:30:52.370Z,96910
2022-10-19T01:31:52.301Z,96909
2022-10-19T01:34:52.302Z,96910
2022-10-19T01:35:52.304Z,96907
2022-10-19T01:36:52.326Z,96912
2022-10-19T01:37:52.334Z,96908
2022-10-19T01:39:52.328Z,96909
2022-10-19T01:40:52.327Z,96911
2022-10-19T01:41:52.332Z,96908
2022-10-19T01:44:52.347Z,96912
2022-10-19T01:45:52.324Z,96910
2022-10-19T01:46:52.326Z,96911
2022-10-19T01:47:52.343Z,96906
2022-10-19T01:51:52.408Z,96903
2022-10-19T01:52:52.346Z,96901
2022-10-19T01:53:52.367Z,96899
2022-10-19T01:54:52.336Z,96901
2022-10-19T01:55:52.335Z,96901
2022-10-19T01:59:52.370Z,96901
2022-10-19T02:00:52.502Z,96899
2022-10-19T02:01:56.404Z,96894
2022-10-19T02:06:52.421Z,96899
2022-10-19T02:08:52.381Z,96894
2022-10-19T02:09:52.373Z,96894
2022-10-19T02:13:52.483Z,96889
2022-10-19T02:14:52.402Z,96889
2022-10-19T02:15:52.418Z,96880
2022-10-19T02:16:52.417Z,96883
2022-10-19T02:17:52.409Z,96883
2022-10-19T02:18:52.426Z,96884
2022-10-19T02:19:52.461Z,96884
2022-10-19T02:20:52.440Z,96887
2022-10-19T02:21:52.439Z,96886
2022-10-19T02:22:52.427Z,96886
2022-10-19T02:23:54.190Z,96884
2022-10-19T02:24:52.414Z,96886
2022-10-19T02:25:52.459Z,96884
2022-10-19T02:26:52.448Z,96882
2022-10-19T02:27:52.426Z,96881
2022-10-19T02:28:52.454Z,96882
2022-10-19T02:29:52.442Z,96882
2022-10-19T02:30:52.436Z,96881
2022-10-19T02:31:52.473Z,96881
2022-10-19T02:32:52.442Z,96881
2022-10-19T02:33:52.458Z,96881
2022-10-19T02:34:52.455Z,96883
2022-10-19T02:35:52.435Z,96883
2022-10-19T02:36:52.470Z,96881
2022-10-19T02:37:52.478Z,96887
2022-10-19T02:38:56.616Z,96883
2022-10-19T02:39:52.457Z,96883
2022-10-19T02:40:52.484Z,96886
2022-10-19T02:41:52.480Z,96885
2022-10-19T02:42:52.491Z,96885
2022-10-19T02:43:52.508Z,96883
2022-10-19T02:44:52.497Z,96882
2022-10-19T02:45:52.476Z,96882
2022-10-19T02:46:52.473Z,96882
2022-10-19T02:47:52.481Z,96882
2022-10-19T02:48:52.525Z,96887
2022-10-19T02:49:52.528Z,96887
2022-10-19T02:50:52.500Z,96882
2022-10-19T02:51:52.484Z,96886
2022-10-19T02:52:52.514Z,96883
2022-10-19T02:53:52.513Z,96881
2022-10-19T02:54:52.513Z,96881
2022-10-19T02:55:52.485Z,96881
2022-10-19T02:56:52.502Z,96883
2022-10-19T02:57:52.524Z,96880
2022-10-19T02:58:52.496Z,96880
2022-10-19T02:59:52.531Z,96880
2022-10-19T03:01:52.580Z,96879
2022-10-19T03:02:52.507Z,96879
2022-10-19T03:04:52.517Z,96878
2022-10-19T03:05:52.537Z,96875
2022-10-19T03:08:52.564Z,96873
2022-10-19T03:09:52.535Z,96872
2022-10-19T03:11:52.539Z,96871
2022-10-19T03:12:52.571Z,96871
2022-10-19T03:14:52.557Z,96865
2022-10-19T03:15:56.818Z,96866
2022-10-19T03:16:52.574Z,96866
2022-10-19T03:21:52.586Z,96861
2022-10-19T03:23:52.571Z,96860
2022-10-19T03:24:52.572Z,96862
2022-10-19T03:25:52.577Z,96860
2022-10-19T03:29:52.614Z,96856
2022-10-19T03:31:52.581Z,96854
2022-10-19T03:32:52.602Z,96849
2022-10-19T03:33:52.610Z,96854
2022-10-19T03:34:52.596Z,96848
2022-10-19T03:35:52.638Z,96853
2022-10-19T03:36:52.611Z,96853
2022-10-19T03:37:52.614Z,96851
2022-10-19T03:38:52.604Z,96850
2022-10-19T03:42:52.639Z,96851
2022-10-19T03:43:52.738Z,96855
2022-10-19T03:44:52.651Z,96847
2022-10-19T03:47:52.718Z,96850
2022-10-19T03:48:52.620Z,96850
2022-10-19T03:49:52.635Z,96850
2022-10-19T03:52:57.098Z,96848
2022-10-19T03:53:52.657Z,96848
2022-10-19T03:55:52.653Z,96848
2022-10-19T03:56:52.649Z,96848
2022-10-19T03:57:52.652Z,96847
2022-10-19T03:58:52.708Z,96847
2022-10-19T04:00:52.763Z,96858
2022-10-19T04:01:52.661Z,96858
2022-10-19T04:02:52.658Z,96851
2022-10-19T04:03:52.656Z,96856
2022-10-19T04:04:52.708Z,96855
2022-10-19T04:05:52.692Z,96858
2022-10-19T04:06:52.679Z,96858
2022-10-19T04:07:52.697Z,96860
2022-10-19T04:08:52.684Z,96861
2022-10-19T04:09:52.688Z,96862
2022-10-19T04:10:52.711Z,96864
2022-10-19T04:11:52.708Z,96865
2022-10-19T04:12:53.872Z,96865
2022-10-19T04:13:52.691Z,96863
2022-10-19T04:14:57.284Z,96866
2022-10-19T04:15:52.737Z,96865
2022-10-19T04:16:52.710Z,96865
2022-10-19T04:17:52.708Z,96869
2022-10-19T04:18:52.713Z,96867
2022-10-19T04:19:52.734Z,96869
2022-10-19T04:20:52.726Z,96869
2022-10-19T04:21:52.743Z,96868
2022-10-19T04:22:52.755Z,96871
2022-10-19T04:23:52.739Z,96871
2022-10-19T04:24:52.745Z,96871
2022-10-19T04:25:52.741Z,96868
2022-10-19T04:26:52.742Z,96871
2022-10-19T04:29:57.274Z,96866
2022-10-19T04:34:52.758Z,96858
2022-10-19T04:35:52.798Z,96857
2022-10-19T04:39:52.768Z,96855
2022-10-19T04:40:52.840Z,96854
2022-10-19T04:41:52.774Z,96854
2022-10-19T04:42:52.770Z,96851
2022-10-19T04:43:52.779Z,96854
2022-10-19T04:45:52.801Z,96850
2022-10-19T04:46:52.819Z,96850
2022-10-19T04:47:52.803Z,96847
2022-10-19T04:49:52.783Z,96842
2022-10-19T04:52:52.829Z,96842
2022-10-19T04:53:54.488Z,96842
2022-10-19T04:54:52.799Z,96842
2022-10-19T04:55:52.833Z,96837
2022-10-19T04:57:52.802Z,96834
2022-10-19T04:58:52.883Z,96825
2022-10-19T04:59:52.825Z,96830
2022-10-19T05:00:53.015Z,96830
2022-10-19T05:01:52.803Z,96826
2022-10-19T05:02:52.819Z,96824
2022-10-19T05:04:52.850Z,96824
2022-10-19T05:05:52.830Z,96827
2022-10-19T05:06:57.460Z,96822
2022-10-19T05:07:52.845Z,96822
2022-10-19T05:09:52.849Z,96827
2022-10-19T05:10:52.880Z,96827
2022-10-19T05:11:52.887Z,96832
2022-10-19T05:12:52.860Z,96832
2022-10-19T05:13:52.869Z,96831
2022-10-19T05:14:52.873Z,96835
2022-10-19T05:15:52.883Z,96833
2022-10-19T05:16:52.882Z,96835
2022-10-19T05:17:52.866Z,96834
2022-10-19T05:18:52.864Z,96833
2022-10-19T05:19:52.904Z,96836
2022-10-19T05:20:52.883Z,96836
2022-10-19T05:21:52.867Z,96836
2022-10-19T05:22:52.914Z,96839
2022-10-19T05:23:52.865Z,96839
2022-10-19T05:24:55.865Z,96844
2022-10-19T05:25:52.915Z,96844
2022-10-19T05:27:52.894Z,96842
2022-10-19T05:28:52.960Z,96837
2022-10-19T05:29:52.899Z,96834
2022-10-19T05:30:52.918Z,96834
2022-10-19T05:31:52.909Z,96832
2022-10-19T05:32:52.894Z,96833
2022-10-19T05:33:52.995Z,96828
2022-10-19T05:34:52.927Z,96828
2022-10-19T05:36:52.918Z,96825
2022-10-19T05:38:52.918Z,96823
2022-10-19T05:40:53.756Z,96822
2022-10-19T05:42:52.926Z,96819
2022-10-19T05:43:57.706Z,96819
2022-10-19T05:45:52.949Z,96819
2022-10-19T05:46:52.971Z,96817
2022-10-19T05:47:52.947Z,96815
2022-10-19T05:48:52.971Z,96815
2022-10-19T05:49:52.944Z,96814
2022-10-19T05:50:52.949Z,96818
2022-10-19T05:51:52.942Z,96820
2022-10-19T05:52:52.995Z,96819
2022-10-19T05:53:52.945Z,96820
2022-10-19T05:55:52.968Z,96818
2022-10-19T05:56:52.973Z,96817
2022-10-19T05:57:52.986Z,96817
2022-10-19T05:58:53.019Z,96818
2022-10-19T05:59:53.004Z,96821
2022-10-19T06:00:53.014Z,96818
2022-10-19T06:01:53.025Z,96818
2022-10-19T06:02:58.288Z,96824
2022-10-19T06:03:53.008Z,96823
2022-10-19T06:04:53.092Z,96822
2022-10-19T06:05:52.995Z,96822
2022-10-19T06:06:52.998Z,96825
2022-10-19T06:07:53.011Z,96826
2022-10-19T06:08:53.026Z,96823
2022-10-19T06:09:53.008Z,96823
2022-10-19T06:10:53.020Z,96825
2022-10-19T06:11:52.995Z,96825
2022-10-19T06:13:52.996Z,96828
2022-10-19T06:14:53.001Z,96830
2022-10-19T06:15:53.070Z,96828
2022-10-19T06:16:53.005Z,96825
2022-10-19T06:17:53.041Z,96829
2022-10-19T06:18:53.017Z,96825
2022-10-19T06:19:53.031Z,96829
2022-10-19T06:20:57.926Z,96827
2022-10-19T06:21:53.012Z,96827
2022-10-19T06:22:53.031Z,96830
2022-10-19T06:23:53.019Z,96830
2022-10-19T06:24:53.027Z,96831
2022-10-19T06:25:53.053Z,96832
2022-10-19T06:26:53.054Z,96830
2022-10-19T06:27:53.093Z,96830
2022-10-19T06:28:53.074Z,96834
2022-10-19T06:29:53.064Z,96834
2022-10-19T06:30:53.104Z,96834
2022-10-19T06:32:53.189Z,96837
2022-10-19T06:33:53.750Z,96842
2022-10-19T06:34:56.420Z,96842
2022-10-19T06:35:53.050Z,96843
2022-10-19T06:36:53.074Z,96843
2022-10-19T06:37:53.079Z,96843
2022-10-19T06:38:53.116Z,96844
2022-10-19T06:39:53.135Z,96845
2022-10-19T06:40:53.077Z,96848
2022-10-19T06:41:53.077Z,96846
2022-10-19T06:42:53.088Z,96841
2022-10-19T06:43:53.078Z,96842
2022-10-19T06:44:53.128Z,96843
2022-10-19T06:45:53.104Z,96843
2022-10-19T06:46:53.081Z,96848
2022-10-19T06:47:53.103Z,96849
2022-10-19T06:48:53.096Z,96849
2022-10-19T06:49:53.103Z,96849
2022-10-19T06:50:53.122Z,96846
2022-10-19T06:52:53.120Z,96845
2022-10-19T06:53:56.582Z,96845
2022-10-19T06:54:53.124Z,96850
2022-10-19T06:55:53.126Z,96848
2022-10-19T06:56:53.176Z,96848
2022-10-19T06:57:58.097Z,96851
2022-10-19T06:58:53.148Z,96851
2022-10-19T06:59:53.795Z,96851
2022-10-19T07:00:53.190Z,96851
2022-10-19T07:01:53.135Z,96851
2022-10-19T07:02:53.120Z,96852
2022-10-19T07:03:53.149Z,96854
2022-10-19T07:04:53.138Z,96859
2022-10-19T07:05:53.150Z,96860
2022-10-19T07:06:53.140Z,96860
2022-10-19T07:07:53.377Z,96863
2022-10-19T07:08:53.129Z,96863
2022-10-19T07:09:53.145Z,96864
2022-10-19T07:10:53.152Z,96860
2022-10-19T07:11:53.165Z,96862
2022-10-19T07:12:53.240Z,96862
2022-10-19T07:13:53.177Z,96863
2022-10-19T07:14:53.160Z,96865
2022-10-19T07:15:53.178Z,96860
2022-10-19T07:16:53.182Z,96860
2022-10-19T07:17:53.187Z,96864
2022-10-19T07:18:53.157Z,96865
2022-10-19T07:19:53.181Z,96864
2022-10-19T07:20:53.189Z,96864
2022-10-19T07:21:53.211Z,96868
2022-10-19T07:22:53.207Z,96866
2022-10-19T07:23:53.192Z,96866
2022-10-19T07:24:53.201Z,96869
2022-10-19T07:25:53.188Z,96869
2022-10-19T07:26:53.220Z,96866
2022-10-19T07:27:53.202Z,96866
2022-10-19T07:28:53.206Z,96867
2022-10-19T07:29:53.208Z,96868
2022-10-19T07:30:53.230Z,96868
2022-10-19T07:31:53.319Z,96865
2022-10-19T07:32:53.207Z,96865
2022-10-19T07:33:53.216Z,96865
2022-10-19T07:34:58.251Z,96862
2022-10-19T07:35:53.220Z,96863
2022-10-19T07:36:53.213Z,96863
2022-10-19T07:37:53.218Z,96863
2022-10-19T07:38:53.218Z,96864
2022-10-19T07:39:53.225Z,96865
2022-10-19T07:40:53.229Z,96866
2022-10-19T07:41:53.244Z,96859
2022-10-19T07:42:53.227Z,96858
2022-10-19T07:43:53.256Z,96858
2022-10-19T07:45:53.241Z,96860
2022-10-19T07:46:53.246Z,96857
2022-10-19T07:47:53.253Z,96853
2022-10-19T07:48:53.242Z,96853
2022-10-19T07:49:53.257Z,96849
2022-10-19T07:50:53.253Z,96849
2022-10-19T07:51:53.274Z,96849
2022-10-19T07:52:53.240Z,96850
2022-10-19T07:54:53.243Z,96850
2022-10-19T07:55:53.250Z,96848
2022-10-19T07:56:53.284Z,96846
2022-10-19T07:58:53.312Z,96843
2022-10-19T08:00:53.288Z,96844
2022-10-19T08:01:53.298Z,96847
2022-10-19T08:02:57.749Z,96850
2022-10-19T08:05:01.763Z,96852
2022-10-19T08:05:53.277Z,96855
2022-10-19T08:06:53.291Z,96857
2022-10-19T08:07:53.316Z,96854
2022-10-19T08:08:53.572Z,96857
2022-10-19T08:09:54.106Z,96854
2022-10-19T08:10:53.318Z,96861
2022-10-19T08:11:53.320Z,96861
2022-10-19T08:12:53.304Z,96855
2022-10-19T08:13:53.340Z,96854
2022-10-19T08:14:53.317Z,96854
2022-10-19T08:15:53.315Z,96854
2022-10-19T08:16:53.305Z,96854
2022-10-19T08:17:53.370Z,96850
2022-10-19T08:18:53.302Z,96850
2022-10-19T08:19:53.347Z,96849
2022-10-19T08:20:53.316Z,96847
2022-10-19T08:21:53.319Z,96846
2022-10-19T08:23:53.327Z,96850
2022-10-19T08:24:53.330Z,96850
2022-10-19T08:25:53.365Z,96852
2022-10-19T08:26:53.331Z,96850
2022-10-19T08:27:53.330Z,96849
2022-10-19T08:28:53.346Z,96846
2022-10-19T08:29:53.401Z,96846
2022-10-19T08:32:53.368Z,96846
2022-10-19T08:33:53.343Z,96844
2022-10-19T08:34:53.349Z,96844
2022-10-19T08:35:53.396Z,96845
2022-10-19T08:36:53.379Z,96844
2022-10-19T08:37:53.777Z,96844
2022-10-19T08:38:53.378Z,96846
2022-10-19T08:39:53.390Z,96844
2022-10-19T08:42:53.366Z,96845
2022-10-19T08:43:53.411Z,96844
2022-10-19T08:44:53.409Z,96844
2022-10-19T08:45:53.693Z,96841
2022-10-19T08:46:53.400Z,96842
2022-10-19T08:47:53.410Z,96845
2022-10-19T08:48:53.402Z,96845
2022-10-19T08:49:53.405Z,96847
2022-10-19T08:50:53.421Z,96843
2022-10-19T08:51:53.423Z,96842
2022-10-19T08:52:53.409Z,96839
2022-10-19T08:53:53.438Z,96839
2022-10-19T08:54:53.410Z,96842
2022-10-19T08:55:53.436Z,96841
2022-10-19T08:57:53.433Z,96840
2022-10-19T08:58:53.448Z,96835
2022-10-19T08:59:53.441Z,96835
2022-10-19T09:00:53.435Z,96838
2022-10-19T09:01:53.443Z,96838
2022-10-19T09:02:53.426Z,96833
2022-10-19T09:03:55.816Z,96831
2022-10-19T09:04:53.441Z,96831
2022-10-19T09:05:53.446Z,96828
2022-10-19T09:06:53.477Z,96830
2022-10-19T09:08:53.535Z,96826
2022-10-19T09:09:53.464Z,96823
2022-10-19T09:10:53.455Z,96824
2022-10-19T09:11:53.433Z,96819
2022-10-19T09:12:55.135Z,96821
2022-10-19T09:14:04.614Z,96817
2022-10-19T09:14:53.464Z,96817
2022-10-19T09:16:53.468Z,96820
2022-10-19T09:17:53.481Z,96817
2022-10-19T09:19:53.483Z,96817
2022-10-19T09:20:53.487Z,96817
2022-10-19T09:21:53.501Z,96818
2022-10-19T09:22:53.897Z,96816
2022-10-19T09:23:53.481Z,96816
2022-10-19T09:25:53.505Z,96821
2022-10-19T09:26:53.513Z,96821
2022-10-19T09:27:53.567Z,96819
2022-10-19T09:28:53.501Z,96819
2022-10-19T09:29:53.497Z,96817
2022-10-19T09:30:53.519Z,96817
2022-10-19T09:31:53.545Z,96820
2022-10-19T09:32:53.498Z,96817
2022-10-19T09:33:53.501Z,96812
2022-10-19T09:34:53.522Z,96812
2022-10-19T09:35:53.583Z,96813
2022-10-19T09:36:53.527Z,96813
2022-10-19T09:37:53.504Z,96813
2022-10-19T09:38:53.537Z,96811
2022-10-19T09:39:55.038Z,96811
2022-10-19T09:42:53.557Z,96810
2022-10-19T09:45:53.558Z,96811
2022-10-19T09:46:53.556Z,96801
2022-10-19T09:47:53.540Z,96800
2022-10-19T09:48:53.543Z,96800
2022-10-19T09:49:53.561Z,96795
2022-10-19T09:50:53.574Z,96795
2022-10-19T09:51:53.592Z,96800
2022-10-19T09:52:53.619Z,96797
2022-10-19T09:54:53.571Z,96794
2022-10-19T09:55:53.607Z,96793
2022-10-19T09:56:53.562Z,96795
2022-10-19T09:58:53.571Z,96796
2022-10-19T09:59:54.136Z,96795
2022-10-19T10:00:53.597Z,96795
2022-10-19T10:01:53.757Z,96796
2022-10-19T10:02:53.581Z,96795
2022-10-19T10:03:55.853Z,96796
2022-10-19T10:04:53.607Z,96796
2022-10-19T10:05:53.583Z,96796
2022-10-19T10:06:53.604Z,96794
2022-10-19T10:07:53.579Z,96795
2022-10-19T10:09:53.598Z,96800
2022-10-19T10:10:53.597Z,96797
2022-10-19T10:12:53.635Z,96801
2022-10-19T10:13:53.637Z,96800
2022-10-19T10:14:53.643Z,96801
2022-10-19T10:15:53.616Z,96799
2022-10-19T10:16:53.625Z,96795
2022-10-19T10:17:53.612Z,96801
2022-10-19T10:18:53.622Z,96801
2022-10-19T10:19:53.618Z,96798
2022-10-19T10:20:53.687Z,96794
2022-10-19T10:21:53.637Z,96794
2022-10-19T10:22:53.666Z,96788
2022-10-19T10:23:53.681Z,96788
2022-10-19T10:24:53.632Z,96790
2022-10-19T10:25:53.648Z,96788
2022-10-19T10:26:53.659Z,96787
2022-10-19T10:27:53.669Z,96784
2022-10-19T10:28:55.610Z,96784
2022-10-19T10:29:53.775Z,96779
2022-10-19T10:30:53.678Z,96781
2022-10-19T10:31:53.678Z,96780
2022-10-19T10:32:53.739Z,96777
2022-10-19T10:33:53.760Z,96776
2022-10-19T10:34:56.944Z,96775
2022-10-19T10:35:53.797Z,96778
2022-10-19T10:36:54.351Z,96779
2022-10-19T10:37:53.682Z,96776
2022-10-19T10:38:53.791Z,96773
2022-10-19T10:39:53.706Z,96777
2022-10-19T10:40:53.686Z,96775
2022-10-19T10:41:53.696Z,96771
2022-10-19T10:42:53.759Z,96774
2022-10-19T10:43:53.889Z,96774
2022-10-19T10:44:53.697Z,96774
2022-10-19T10:46:53.711Z,96768
2022-10-19T10:47:53.794Z,96764
2022-10-19T10:48:53.728Z,96767
2022-10-19T10:49:53.760Z,96768
2022-10-19T10:50:53.715Z,96768
2022-10-19T10:51:53.713Z,96766
2022-10-19T10:52:53.734Z,96768
2022-10-19T10:53:53.775Z,96765
2022-10-19T10:54:53.714Z,96765
2022-10-19T10:55:53.733Z,96764
2022-10-19T10:56:53.754Z,96764
2022-10-19T10:57:53.757Z,96766
2022-10-19T10:58:53.744Z,96763
2022-10-19T10:59:53.726Z,96763
2022-10-19T11:00:53.758Z,96759
2022-10-19T11:01:53.845Z,96762
2022-10-19T11:02:53.790Z,96759
2022-10-19T11:03:53.774Z,96756
2022-10-19T11:04:53.792Z,96756
2022-10-19T11:05:53.777Z,96753
2022-10-19T11:06:53.826Z,96748
2022-10-19T11:07:53.784Z,96744
2022-10-19T11:08:53.796Z,96744
2022-10-19T11:09:53.783Z,96742
2022-10-19T11:10:53.785Z,96741
2022-10-19T11:11:53.773Z,96742
2022-10-19T11:12:53.762Z,96742
2022-10-19T11:13:54.629Z,96738
2022-10-19T11:14:53.781Z,96737
2022-10-19T11:15:53.803Z,96740
2022-10-19T11:16:53.812Z,96736
2022-10-19T11:17:53.815Z,96740
2022-10-19T11:18:53.914Z,96738
2022-10-19T11:19:53.818Z,96736
2022-10-19T11:20:53.789Z,96736
2022-10-19T11:21:53.837Z,96732
2022-10-19T11:22:53.811Z,96734
2022-10-19T11:23:53.950Z,96735
2022-10-19T11:24:53.823Z,96735
2022-10-19T11:25:53.819Z,96732
2022-10-19T11:26:53.820Z,96729
2022-10-19T11:27:53.812Z,96728
2022-10-19T11:28:53.809Z,96728
2022-10-19T11:29:53.860Z,96722
2022-10-19T11:30:53.809Z,96720
2022-10-19T11:31:53.829Z,96716
2022-10-19T11:32:53.815Z,96715
2022-10-19T11:33:53.838Z,96718
2022-10-19T11:34:53.906Z,96713
2022-10-19T11:35:53.844Z,96715
2022-10-19T11:36:53.871Z,96715
2022-10-19T11:38:17.532Z,96718
2022-10-19T11:38:53.837Z,96714
2022-10-19T11:39:53.851Z,96713
2022-10-19T11:42:53.850Z,96710
2022-10-19T11:43:53.861Z,96707
2022-10-19T11:44:53.843Z,96711
2022-10-19T11:45:53.869Z,96709
2022-10-19T11:47:53.936Z,96702
2022-10-19T11:48:54.909Z,96694
2022-10-19T11:49:53.874Z,96698
2022-10-19T11:50:58.773Z,96698
2022-10-19T11:51:53.867Z,96698
2022-10-19T11:52:53.880Z,96695
2022-10-19T11:55:53.895Z,96697
2022-10-19T11:57:04.776Z,96696
2022-10-19T11:57:53.903Z,96690
2022-10-19T11:58:53.896Z,96690
2022-10-19T11:59:55.685Z,96689
2022-10-19T12:00:53.895Z,96690
2022-10-19T12:01:53.995Z,96686
2022-10-19T12:02:53.879Z,96687
2022-10-19T12:03:53.918Z,96682
2022-10-19T12:04:53.928Z,96681
2022-10-19T12:05:53.893Z,96681
2022-10-19T12:06:53.914Z,96675
2022-10-19T12:07:53.892Z,96675
2022-10-19T12:08:56.176Z,96672
2022-10-19T12:09:53.918Z,96672
2022-10-19T12:10:53.930Z,96668
2022-10-19T12:12:53.926Z,96661
2022-10-19T12:13:53.901Z,96661
2022-10-19T12:14:53.950Z,96656
2022-10-19T12:15:53.992Z,96656
2022-10-19T12:16:53.947Z,96653
2022-10-19T12:17:53.968Z,96651
2022-10-19T12:18:53.947Z,96653
2022-10-19T12:19:53.947Z,96649
2022-10-19T12:20:53.932Z,96649
2022-10-19T12:21:53.951Z,96647
2022-10-19T12:22:53.959Z,96646
2022-10-19T12:23:53.965Z,96648
2022-10-19T12:24:53.960Z,96644
2022-10-19T12:25:53.951Z,96642
2022-10-19T12:26:53.987Z,96638
2022-10-19T12:27:55.053Z,96635
2022-10-19T12:28:53.978Z,96632
2022-10-19T12:29:53.968Z,96633
2022-10-19T12:30:54.026Z,96628
2022-10-19T12:31:53.957Z,96628
2022-10-19T12:32:54.450Z,96625
2022-10-19T12:33:53.994Z,96623
2022-10-19T12:34:53.973Z,96623
2022-10-19T12:35:54.061Z,96614
2022-10-19T12:36:54.001Z,96615
2022-10-19T12:37:53.996Z,96615
2022-10-19T12:39:00.027Z,96618
2022-10-19T12:39:53.997Z,96612
2022-10-19T12:40:54.015Z,96613
2022-10-19T12:41:54.027Z,96613
2022-10-19T12:42:54.007Z,96606
2022-10-19T12:43:54.011Z,96606
2022-10-19T12:44:56.364Z,96602
2022-10-19T12:45:54.075Z,96599
2022-10-19T12:46:56.459Z,96599
2022-10-19T12:47:54.030Z,96595
2022-10-19T12:48:54.018Z,96602
2022-10-19T12:49:54.021Z,96596
2022-10-19T12:50:54.005Z,96596
2022-10-19T12:51:54.042Z,96600
2022-10-19T12:52:54.024Z,96592
2022-10-19T12:53:54.021Z,96593
2022-10-19T12:54:54.053Z,96585
2022-10-19T12:56:54.041Z,96589
2022-10-19T12:57:54.045Z,96587
2022-10-19T12:59:54.065Z,96584
2022-10-19T13:00:54.096Z,96584
2022-10-19T13:01:54.049Z,96585
2022-10-19T13:02:54.048Z,96582
2022-10-19T13:03:54.058Z,96580
2022-10-19T13:04:55.247Z,96578
2022-10-19T13:05:54.086Z,96579
2022-10-19T13:06:54.069Z,96579
2022-10-19T13:07:54.061Z,96577
2022-10-19T13:08:54.117Z,96574
2022-10-19T13:09:54.056Z,96574
2022-10-19T13:10:54.070Z,96582
2022-10-19T13:11:54.081Z,96579
2022-10-19T13:12:54.066Z,96575
2022-10-19T13:13:54.080Z,96574
2022-10-19T13:14:54.069Z,96574
2022-10-19T13:15:54.074Z,96575
2022-10-19T13:16:54.082Z,96573
2022-10-19T13:17:54.087Z,96576
2022-10-19T13:18:54.090Z,96579
2022-10-19T13:19:54.113Z,96579
2022-10-19T13:20:54.110Z,96573
2022-10-19T13:21:54.108Z,96573
2022-10-19T13:22:54.121Z,96562
2022-10-19T13:23:54.122Z,96562
2022-10-19T13:24:54.126Z,96557
2022-10-19T13:25:54.098Z,96557
2022-10-19T13:26:54.145Z,96555
2022-10-19T13:27:54.145Z,96555
2022-10-19T13:28:54.140Z,96553
2022-10-19T13:29:54.135Z,96553
2022-10-19T13:30:58.370Z,96546
2022-10-19T13:31:54.116Z,96546
2022-10-19T13:32:54.136Z,96545
2022-10-19T13:33:54.168Z,96543
2022-10-19T13:34:54.137Z,96543
2022-10-19T13:35:54.157Z,96541
2022-10-19T13:36:54.149Z,96541
2022-10-19T13:37:54.158Z,96528
2022-10-19T13:38:54.134Z,96526
2022-10-19T13:39:54.151Z,96526
2022-10-19T13:40:54.161Z,96523
2022-10-19T13:41:55.467Z,96526
2022-10-19T13:43:54.168Z,96522
2022-10-19T13:44:54.183Z,96516
2022-10-19T13:45:54.163Z,96516
2022-10-19T13:46:54.173Z,96511
2022-10-19T13:47:54.167Z,96511
2022-10-19T13:48:54.165Z,96506
2022-10-19T13:49:54.177Z,96502
2022-10-19T13:50:54.172Z,96502
2022-10-19T13:51:54.186Z,96504
2022-10-19T13:52:54.201Z,96504
2022-10-19T13:53:54.177Z,96504
2022-10-19T13:54:54.203Z,96507
2022-10-19T13:56:54.176Z,96505
2022-10-19T13:57:55.351Z,96503
2022-10-19T13:58:54.196Z,96500
2022-10-19T14:00:54.201Z,96502
2022-10-19T14:01:54.229Z,96503
2022-10-19T14:02:54.212Z,96502
2022-10-19T14:03:54.183Z,96502
2022-10-19T14:04:54.208Z,96496
2022-10-19T14:06:54.225Z,96496
2022-10-19T14:08:54.330Z,96495
2022-10-19T14:09:54.234Z,96502
2022-10-19T14:11:01.005Z,96505
2022-10-19T14:11:54.257Z,96505
2022-10-19T14:12:54.232Z,96505
2022-10-19T14:13:54.243Z,96504
2022-10-19T14:14:54.268Z,96505
2022-10-19T14:15:54.260Z,96503
2022-10-19T14:16:56.076Z,96504
2022-10-19T14:17:54.228Z,96504
2022-10-19T14:18:55.637Z,96507
2022-10-19T14:20:54.249Z,96507
2022-10-19T14:22:54.247Z,96504
2022-10-19T14:23:54.255Z,96502
2022-10-19T14:24:54.253Z,96505
2022-10-19T14:25:54.274Z,96502
2022-10-19T14:28:54.303Z,96501
2022-10-19T14:29:54.360Z,96502
2022-10-19T14:30:54.303Z,96503
2022-10-19T14:31:54.297Z,96503
2022-10-19T14:32:56.770Z,96502
2022-10-19T14:33:54.302Z,96503
2022-10-19T14:35:54.295Z,96503
2022-10-19T14:36:54.370Z,96499
2022-10-19T14:37:54.300Z,96501
2022-10-19T14:38:54.297Z,96501
2022-10-19T14:40:54.296Z,96499
2022-10-19T14:41:54.295Z,96493
2022-10-19T14:42:54.444Z,96495
2022-10-19T14:43:54.306Z,96499
2022-10-19T14:44:54.304Z,96499
2022-10-19T14:45:54.325Z,96504
2022-10-19T14:47:54.335Z,96498
2022-10-19T14:48:54.354Z,96499
2022-10-19T14:49:54.332Z,96496
2022-10-19T14:50:54.322Z,96496
2022-10-19T14:51:54.335Z,96499
2022-10-19T14:52:54.339Z,96500
2022-10-19T14:53:54.367Z,96500
2022-10-19T14:54:54.363Z,96499
2022-10-19T14:56:54.396Z,96498
2022-10-19T14:57:54.349Z,96498
2022-10-19T14:58:54.351Z,96502
2022-10-19T14:59:54.347Z,96498
2022-10-19T15:00:54.346Z,96498
2022-10-19T15:02:54.363Z,96494
2022-10-19T15:03:54.379Z,96496
2022-10-19T15:04:54.456Z,96493
2022-10-19T15:05:54.358Z,96493
2022-10-19T15:06:54.378Z,96494
2022-10-19T15:07:54.381Z,96492
2022-10-19T15:09:54.422Z,96491